Terminal Aerodrome Forecast
Issued by NWS Sterling, VA

Current Version | Previous Version | Text Only | Print | Product List | Glossary Off
Versions: 1 2 3 4 5 6 7 8 9 10 11 12 13 14 15 16 17 18 19 20 21 22

000
FTUS41 KLWX 251427 AAA
TAFIAD
TAF AMD
KIAD 251427Z 2514/2618 04006KT P6SM OVC100
     FM251800 VRB03KT P6SM -RA OVC090
     FM252100 21006KT P6SM -RA OVC060
     FM252300 22007KT P6SM RA OVC030
     FM260000 22007KT 3SM -RA OVC020
     FM260200 VRB03KT 3SM -RA OVC008
     FM261000 VRB03KT P6SM OVC008
     FM261500 35006KT P6SM BKN050=

USA.gov is the U.S. government's official web portal to all federal, state and local government web resources and services.